createdAt,value
2019-03-26T00:04:35.917Z,7.80
2019-03-26T00:09:41.496Z,7.70
2019-03-26T00:14:47.174Z,7.70
2019-03-26T00:19:52.916Z,7.70
2019-03-26T00:24:58.633Z,7.70
2019-03-26T00:30:04.782Z,7.70
2019-03-26T00:35:10.710Z,7.70
2019-03-26T00:40:16.674Z,7.70
2019-03-26T00:45:22.342Z,7.70
2019-03-26T00:50:28.041Z,7.70
2019-03-26T00:55:33.974Z,7.70
2019-03-26T01:00:44.463Z,7.70
2019-03-26T01:05:50.298Z,7.70
2019-03-26T01:10:55.988Z,7.80
2019-03-26T01:16:01.629Z,7.80
2019-03-26T01:21:07.377Z,7.80
2019-03-26T01:26:12.951Z,7.70
2019-03-26T01:31:18.618Z,7.70
2019-03-26T01:36:24.420Z,7.70
2019-03-26T01:41:30.122Z,7.70
2019-03-26T01:46:36.019Z,7.70
2019-03-26T01:51:41.790Z,7.80
2019-03-26T01:56:47.546Z,7.80
2019-03-26T02:01:53.314Z,7.80
2019-03-26T02:06:58.903Z,7.80
2019-03-26T02:12:04.546Z,7.80
2019-03-26T02:17:10.350Z,7.70
2019-03-26T02:22:16.006Z,7.70
2019-03-26T02:27:21.768Z,7.80
2019-03-26T02:32:27.570Z,7.80
2019-03-26T02:37:34.639Z,7.70
2019-03-26T02:42:40.220Z,7.60
2019-03-26T02:47:49.516Z,7.50
2019-03-26T02:52:55.868Z,7.50
2019-03-26T02:58:01.549Z,7.50
2019-03-26T03:03:07.469Z,7.40
2019-03-26T03:08:13.100Z,7.40
2019-03-26T03:13:18.600Z,7.40
2019-03-26T03:18:24.339Z,7.40
2019-03-26T03:23:30.002Z,7.50
2019-03-26T03:28:35.603Z,7.50
2019-03-26T03:33:42.447Z,7.50
2019-03-26T03:38:48.081Z,7.40
2019-03-26T03:43:54.644Z,7.40
2019-03-26T03:49:00.879Z,7.40
2019-03-26T03:54:07.298Z,7.40
2019-03-26T03:59:13.398Z,7.40
2019-03-26T04:04:19.078Z,7.40
2019-03-26T04:09:24.717Z,7.40
2019-03-26T04:14:30.303Z,7.50
2019-03-26T04:19:36.073Z,7.40
2019-03-26T04:24:41.731Z,7.30
2019-03-26T04:29:47.390Z,7.40
2019-03-26T04:34:52.899Z,7.40
2019-03-26T04:39:58.546Z,7.40
2019-03-26T04:45:04.250Z,7.40
2019-03-26T04:50:09.841Z,7.40
2019-03-26T04:55:15.537Z,7.50
2019-03-26T05:00:21.385Z,7.40
2019-03-26T05:05:27.113Z,7.40
2019-03-26T05:10:32.794Z,7.50
2019-03-26T05:15:38.385Z,7.50
2019-03-26T05:20:43.966Z,7.40
2019-03-26T05:25:49.623Z,7.40
2019-03-26T05:30:55.319Z,7.40
2019-03-26T05:36:01.111Z,7.40
2019-03-26T05:41:06.928Z,7.40
2019-03-26T05:46:12.493Z,7.40
2019-03-26T05:51:18.293Z,7.40
2019-03-26T05:56:24.056Z,7.40
2019-03-26T06:01:29.899Z,7.40
2019-03-26T06:06:35.532Z,7.60
2019-03-26T06:11:41.168Z,7.70
2019-03-26T06:16:46.974Z,7.80
2019-03-26T06:21:52.595Z,7.90
2019-03-26T06:26:58.397Z,8.00
2019-03-26T06:32:04.105Z,8.00
2019-03-26T06:37:17.851Z,8.00
2019-03-26T06:42:17.136Z,8.00
2019-03-26T06:47:22.893Z,8.10
2019-03-26T06:52:28.598Z,8.30
2019-03-26T06:57:35.727Z,8.50
2019-03-26T07:02:42.154Z,9.00
2019-03-26T07:07:47.819Z,9.20
2019-03-26T07:12:53.397Z,9.30
2019-03-26T07:17:59.146Z,9.40
2019-03-26T07:23:04.787Z,9.60
2019-03-26T07:28:10.529Z,9.80
2019-03-26T07:33:16.830Z,9.80
2019-03-26T07:38:22.717Z,9.40
2019-03-26T07:43:28.406Z,9.20
2019-03-26T07:48:34.837Z,9.30
2019-03-26T07:53:40.475Z,9.10
2019-03-26T07:58:46.199Z,9.00
2019-03-26T08:03:51.863Z,9.00
2019-03-26T08:08:57.381Z,9.20
2019-03-26T08:14:03.039Z,9.30
2019-03-26T08:19:08.692Z,9.30
2019-03-26T08:24:14.371Z,9.40
2019-03-26T08:29:19.899Z,9.30
2019-03-26T08:34:25.586Z,9.40
2019-03-26T08:39:31.223Z,9.40
2019-03-26T08:44:37.038Z,9.40
2019-03-26T08:49:42.817Z,9.50
2019-03-26T08:54:48.559Z,9.60
2019-03-26T08:59:54.248Z,9.90
2019-03-26T09:04:59.888Z,10.00
2019-03-26T09:10:06.261Z,10.00
2019-03-26T09:15:14.538Z,10.10
2019-03-26T09:20:20.846Z,10.10
2019-03-26T09:25:26.746Z,10.30
2019-03-26T09:30:32.452Z,10.10
2019-03-26T09:35:38.427Z,9.80
2019-03-26T09:40:44.123Z,9.80
2019-03-26T09:45:49.805Z,10.00
2019-03-26T09:50:55.553Z,10.20
2019-03-26T09:56:02.140Z,10.20
2019-03-26T10:01:07.915Z,10.30
2019-03-26T10:06:23.287Z,10.80
2019-03-26T10:11:23.121Z,10.80
2019-03-26T10:16:29.687Z,11.10
2019-03-26T10:21:35.441Z,11.50
2019-03-26T10:26:41.146Z,11.30
2019-03-26T10:31:46.793Z,11.10
2019-03-26T10:36:52.723Z,11.00
2019-03-26T10:41:58.650Z,11.20
2019-03-26T10:47:04.422Z,11.30
2019-03-26T10:52:10.225Z,11.30
2019-03-26T10:57:15.894Z,11.10
2019-03-26T11:02:21.648Z,11.00
2019-03-26T11:07:27.509Z,11.30
2019-03-26T11:12:33.401Z,11.10
2019-03-26T11:17:39.287Z,11.20
2019-03-26T11:22:45.230Z,11.40
2019-03-26T11:27:52.276Z,11.20
2019-03-26T11:32:58.012Z,11.20
2019-03-26T11:38:03.842Z,11.30
2019-03-26T11:43:09.528Z,11.20
2019-03-26T11:48:15.247Z,11.30
2019-03-26T11:53:21.087Z,11.30
2019-03-26T11:58:30.689Z,11.50
2019-03-26T12:03:34.566Z,11.20
2019-03-26T12:08:40.318Z,11.30
2019-03-26T12:13:45.970Z,11.40
2019-03-26T12:18:51.689Z,11.40
2019-03-26T12:23:57.403Z,11.40
2019-03-26T12:29:03.219Z,11.40
2019-03-26T12:34:09.020Z,11.40
2019-03-26T12:39:14.566Z,11.20
2019-03-26T12:44:20.369Z,11.50
2019-03-26T12:49:26.076Z,11.50
2019-03-26T12:54:31.966Z,11.40
2019-03-26T12:59:37.842Z,11.40
2019-03-26T13:04:43.708Z,11.30
2019-03-26T13:09:49.558Z,11.50
2019-03-26T13:14:59.388Z,11.60
2019-03-26T13:20:14.302Z,11.60
2019-03-26T13:25:20.127Z,11.40
2019-03-26T13:30:25.763Z,11.10
2019-03-26T13:35:31.586Z,11.20
2019-03-26T13:40:37.263Z,11.20
2019-03-26T13:45:43.033Z,11.30
2019-03-26T13:50:48.906Z,11.40
2019-03-26T13:55:54.600Z,11.40
2019-03-26T14:01:00.354Z,11.40
2019-03-26T14:06:06.156Z,11.40
2019-03-26T14:11:11.966Z,11.40
2019-03-26T14:16:17.758Z,11.40
2019-03-26T14:21:23.423Z,11.40
2019-03-26T14:26:29.080Z,11.40
2019-03-26T14:31:34.834Z,11.20
2019-03-26T14:36:40.611Z,11.20
2019-03-26T14:41:46.299Z,11.10
2019-03-26T14:46:52.050Z,11.30
2019-03-26T14:51:57.862Z,11.30
2019-03-26T14:57:03.666Z,11.30
2019-03-26T15:02:09.323Z,11.40
2019-03-26T15:07:15.010Z,11.40
2019-03-26T15:12:20.787Z,11.60
2019-03-26T15:17:26.576Z,11.50
2019-03-26T15:22:32.369Z,11.40
2019-03-26T15:27:38.059Z,11.20
2019-03-26T15:32:43.931Z,11.30
2019-03-26T15:37:49.703Z,11.20
2019-03-26T15:42:55.400Z,11.30
2019-03-26T15:48:01.208Z,11.40
2019-03-26T15:53:06.806Z,11.30
2019-03-26T15:58:12.635Z,11.20
2019-03-26T16:03:18.503Z,11.20
2019-03-26T16:08:25.306Z,10.90
2019-03-26T16:13:31.123Z,11.00
2019-03-26T16:18:38.135Z,10.80
2019-03-26T16:23:43.993Z,10.60
2019-03-26T16:28:49.760Z,10.50
2019-03-26T16:33:55.390Z,10.40
2019-03-26T16:39:01.322Z,10.40
2019-03-26T16:44:08.555Z,10.30
2019-03-26T16:49:14.303Z,10.30
2019-03-26T16:54:20.085Z,10.30
2019-03-26T17:06:53.244Z,10.10
2019-03-26T17:18:10.913Z,9.90
2019-03-26T17:23:34.095Z,9.80
2019-03-26T17:28:41.424Z,9.70
2019-03-26T17:33:47.210Z,10.00
2019-03-26T17:38:52.946Z,10.10
2019-03-26T17:43:59.654Z,10.10
2019-03-26T17:49:05.326Z,10.10
2019-03-26T17:54:10.921Z,9.30
2019-03-26T17:59:16.518Z,9.20
2019-03-26T18:04:22.189Z,9.40
2019-03-26T18:09:27.847Z,9.30
2019-03-26T18:14:33.441Z,9.30
2019-03-26T18:19:39.127Z,9.40
2019-03-26T18:24:44.867Z,9.30
2019-03-26T18:29:50.494Z,9.30
2019-03-26T18:34:56.094Z,9.40
2019-03-26T18:40:01.874Z,9.30
2019-03-26T18:45:07.654Z,9.30
2019-03-26T18:50:14.442Z,9.40
2019-03-26T18:55:20.135Z,9.40
2019-03-26T19:00:34.627Z,9.30
2019-03-26T19:05:40.254Z,9.30
2019-03-26T19:10:45.846Z,9.30
2019-03-26T19:15:52.013Z,9.20
2019-03-26T19:21:02.511Z,9.20
2019-03-26T19:26:05.224Z,9.10
2019-03-26T19:31:10.741Z,9.20
2019-03-26T19:36:17.104Z,9.30
2019-03-26T19:41:34.372Z,9.20
2019-03-26T19:46:41.441Z,9.10
2019-03-26T19:51:48.278Z,9.20
2019-03-26T19:56:54.388Z,9.10
2019-03-26T20:02:02.579Z,9.20
2019-03-26T20:07:15.452Z,9.10
2019-03-26T20:12:27.417Z,9.20
2019-03-26T20:17:34.859Z,9.10
2019-03-26T20:22:41.588Z,9.20
2019-03-26T20:27:54.456Z,9.20
2019-03-26T20:33:04.181Z,9.30
2019-03-26T20:38:10.720Z,9.20
2019-03-26T20:43:36.524Z,9.20
2019-03-26T20:48:31.015Z,9.20
2019-03-26T20:53:46.953Z,9.10
2019-03-26T20:58:55.743Z,9.10
2019-03-26T21:04:01.391Z,9.10
2019-03-26T21:09:08.885Z,9.10
2019-03-26T21:14:20.923Z,9.00
2019-03-26T21:19:33.778Z,9.10
2019-03-26T21:24:42.534Z,9.00
2019-03-26T21:29:51.205Z,9.10
2019-03-26T21:34:57.632Z,9.10
2019-03-26T21:40:06.637Z,9.00
2019-03-26T21:45:13.853Z,9.00
2019-03-26T21:50:22.443Z,9.00
2019-03-26T21:55:28.512Z,9.00
2019-03-26T22:00:36.351Z,9.00
2019-03-26T22:05:47.797Z,9.00
2019-03-26T22:10:52.974Z,9.00
2019-03-26T22:15:58.982Z,9.00
2019-03-26T22:21:05.944Z,8.90
2019-03-26T22:26:21.763Z,8.80
2019-03-26T22:31:28.382Z,8.80
2019-03-26T22:36:34.321Z,8.90
2019-03-26T22:41:45.858Z,8.80
2019-03-26T22:46:51.659Z,8.80
2019-03-26T22:51:59.064Z,8.90
2019-03-26T22:57:05.352Z,8.90
2019-03-26T23:02:11.891Z,8.90
2019-03-26T23:07:22.195Z,8.90
2019-03-26T23:12:32.263Z,8.90
2019-03-26T23:17:38.256Z,8.90
2019-03-26T23:22:44.228Z,8.80
2019-03-26T23:27:51.837Z,8.80
2019-03-26T23:33:00.661Z,8.90
2019-03-26T23:38:08.345Z,8.80
2019-03-26T23:43:18.206Z,8.70
2019-03-26T23:48:28.485Z,8.60
2019-03-26T23:53:34.310Z,8.70
2019-03-26T23:58:40.196Z,8.70
